Flight Track Log - Related Links

Times and Time Zones

All times are in EDT time to prevent confusion due to time zone crossing. See the UAL4380 flight status page for this flight to view local times or setup timezone preferences in your user account.

Time Position Orientation Groundspeed Altitude Reporting Facility
EDT Latitude Longitude Course Direction KTS MPH feet Rate Location/Type
Tue 09:11:48 AM 29.9769 -95.3031 334° Northwest 155 178 700  Level Houston Center
Tue 09:12:36 AM 30.0114 -95.2894 19° North 253 291 1,800 1,520 Climbing Houston Center
Tue 09:13:03 AM 30.0483 -95.3008 345° North 279 321 2,600 2,129 Climbing Houston Center
Tue 09:13:38 AM 30.0919 -95.3206 339° North 319 367 4,000 2,459 Climbing Houston Center
Tue 09:14:04 AM 30.1214 -95.3400 330° Northwest 288 331 5,100 2,557 Climbing Houston Center
Tue 09:14:39 AM 30.1617 -95.3725 325° Northwest 301 346 6,600 2,323 Climbing Houston Center
Tue 09:15:00 AM 30.3213 -95.5320 332° Northwest  Level FlightAware Approximate
Tue 09:15:06 AM 30.1900 -95.3922 329° Northwest 295 339 7,500  Level Houston Center
Tue 09:16:00 AM 30.4061 -95.5811 334° Northwest  Level FlightAware Approximate
Tue 09:16:08 AM 30.2597 -95.4450 327° Northwest 297 342 9,600  Level Houston Center
Tue 09:17:09 AM 30.3306 -95.4972 328° Northwest 300 345 11,100 1,122 Climbing Houston Center
Tue 09:18:11 AM 30.4119 -95.5589 327° Northwest 347 399 11,900 1,113 Climbing Houston Center
Tue 09:19:13 AM 30.4967 -95.6231 327° Northwest 362 417 13,400 1,024 Climbing Houston Center
Tue 09:20:14 AM 30.6075 -95.6894 333° Northwest 380 437 14,000 293 Climbing Houston Center
Tue 09:21:16 AM 30.7128 -95.7464 335° Northwest 400 460 14,000  Level Houston Center
Tue 09:22:18 AM 30.8114 -95.7992 335° Northwest 391 450 14,000  Level Houston Center
Tue 09:23:19 AM 30.9081 -95.8514 335° Northwest 383 441 14,000 49 Level Houston Center
Tue 09:24:21 AM 31.0058 -95.9025 336° Northwest 384 442 14,100 48 Climbing Houston Center
Tue 09:25:23 AM 31.1022 -95.9547 335° Northwest 380 437 14,100  Level Houston Center
Tue 09:26:24 AM 31.2083 -95.9875 345° North 400 460 14,100  Level Houston Center
Tue 09:27:26 AM 31.3183 -96.0114 349° North 400 460 14,100 -47 Level Houston Center
Tue 09:28:31 AM 31.4397 -96.0400 349° North 399 459 14,000 -48 Descending Fort Worth Center
Tue 09:29:31 AM 31.5464 -96.0678 347° North 393 452 14,000  Level Fort Worth Center
Tue 09:30:31 AM 31.6553 -96.0978 347° North 388 447 14,000  Level Fort Worth Center
Tue 09:31:31 AM 31.7600 -96.1356 343° North 400 460 14,000  Level Fort Worth Center
Tue 09:32:31 AM 31.8711 -96.1731 344° North 401 461 14,000  Level Fort Worth Center
Tue 09:33:31 AM 31.9883 -96.2131 344° North 401 461 14,000  Level Fort Worth Center
Tue 09:34:31 AM 32.0953 -96.2511 343° North 401 461 14,000 -650 Level Fort Worth Center
Tue 09:35:31 AM 32.1978 -96.2864 344° North 401 461 12,700 -1,450 Descending Fort Worth Center
Tue 09:36:31 AM 32.2983 -96.3222 343° North 379 436 11,100 -1,600 Descending Fort Worth Center
Tue 09:37:31 AM 32.3781 -96.3508 343° North 345 397 9,500 -1,050 Descending Fort Worth Center
Tue 09:38:31 AM 32.4639 -96.3867 341° North 306 352 9,000 -250 Descending Fort Worth Center
Tue 09:39:31 AM 32.5331 -96.4303 332° Northwest 300 345 9,000 -550 Level Fort Worth Center
Tue 09:40:31 AM 32.6169 -96.4786 334° Northwest 305 351 7,900 -1,000 Descending Fort Worth Center
Tue 09:41:31 AM 32.6883 -96.5272 330° Northwest 305 351 7,000 -1,000 Descending Fort Worth Center
Tue 09:42:31 AM 32.7556 -96.5808 326° Northwest 292 336 5,900 -1,000 Descending Fort Worth Center
Tue 09:43:31 AM 32.8225 -96.6247 331° Northwest 280 322 5,000 -450 Descending Fort Worth Center
Tue 09:44:31 AM 32.8875 -96.6689 330° Northwest 270 311 5,000  Level Fort Worth Center
Tue 09:45:18 AM 32.9333 -96.7000 330° Northwest 256 295 5,000  Level Dallas / Fort Worth TRACON
Tue 09:46:12 AM 32.9667 -96.7500 308° West 206 237 5,000 -470 Level Dallas / Fort Worth TRACON
Tue 09:47:13 AM 33.0000 -96.8000 308° West 196 226 4,100 -843 Descending Dallas / Fort Worth TRACON
Tue 09:48:13 AM 33.0000 -96.8500 270° West 168 193 3,300 -550 Descending Dallas / Fort Worth TRACON
Tue 09:49:13 AM 32.9833 -96.9000 248° West 153 176 3,000 -600 Descending Dallas / Fort Worth TRACON
Tue 09:50:13 AM 32.9500 -96.9333 220° Southwest 148 170 2,100 -900 Descending Dallas / Fort Worth TRACON

Login

Don't have an account? Register now (free) for customized features, flight alerts, and more!